Time;durP1;ratioP1;P1;durP2;ratioP2;P2;SDS_P1;SDS_P2;PMS_P1;PMS_P2;Temp;Humidity;BMP_temperature;BMP_pressure;BME280_temperature;BME280_humidity;BME280_pressure;Samples;Min_cycle;Max_cycle;Signal;HPM_P1;HPM_P2
2022/12/29 00:01:55;;;;;;;36.35;18.42;;;8.80;99.90;;;;;;5061588;28;20032;-74
2022/12/29 00:04:21;;;;;;;35.50;17.05;;;8.80;99.90;;;;;;5043438;28;20049;-72
2022/12/29 00:06:48;;;;;;;32.17;17.85;;;8.80;99.90;;;;;;5061313;28;20029;-71
2022/12/29 00:09:16;;;;;;;38.10;19.30;;;8.90;99.90;;;;;;5060997;28;20021;-72
2022/12/29 00:11:42;;;;;;;37.78;20.00;;;8.90;99.90;;;;;;5060553;28;20041;-74
2022/12/29 00:16:54;;;;;;;28.90;15.13;;;9.00;99.90;;;;;;5061456;28;20028;-72
2022/12/29 00:36:32;;;;;;;21.95;13.05;;;9.10;99.90;;;;;;5061426;28;20040;-69
2022/12/29 00:44:45;;;;;;;27.05;14.30;;;9.10;99.90;;;;;;5036559;28;20086;-70
2022/12/29 00:47:11;;;;;;;26.33;14.63;;;9.10;99.90;;;;;;5059560;28;20017;-72
2022/12/29 00:49:42;;;;;;;22.42;13.52;;;9.10;99.90;;;;;;5042509;28;20017;-69
2022/12/29 00:52:14;;;;;;;24.08;15.13;;;9.10;99.90;;;;;;5042048;28;20025;-70
2022/12/29 00:54:44;;;;;;;28.95;14.45;;;9.10;99.90;;;;;;5060194;28;20064;-71
2022/12/29 00:57:12;;;;;;;38.08;19.08;;;9.10;99.90;;;;;;5041975;28;20033;-68
2022/12/29 00:59:41;;;;;;;32.35;17.63;;;9.10;99.90;;;;;;5042525;28;20493;-70
2022/12/29 01:02:14;;;;;;;44.60;21.48;;;9.10;99.90;;;;;;5042529;28;20128;-71
2022/12/29 01:04:40;;;;;;;34.28;18.45;;;9.10;99.90;;;;;;5046735;28;20108;-75
2022/12/29 01:07:06;;;;;;;45.28;20.85;;;9.10;99.90;;;;;;5065740;28;20029;-69
2022/12/29 01:12:39;;;;;;;28.02;13.68;;;9.10;99.90;;;;;;5065819;28;20038;-71
2022/12/29 01:15:04;;;;;;;35.88;16.80;;;9.10;99.90;;;;;;5064962;28;20067;-70
2022/12/29 01:17:44;;;;;;;30.70;17.02;;;9.20;99.90;;;;;;5048772;28;20029;-70
2022/12/29 01:20:19;;;;;;;31.67;18.88;;;9.20;99.90;;;;;;5049656;28;20029;-71
2022/12/29 01:22:45;;;;;;;31.17;18.30;;;9.10;99.90;;;;;;5064122;28;20045;-70
2022/12/29 01:25:11;;;;;;;31.23;18.67;;;9.20;99.90;;;;;;5063616;28;20021;-72
2022/12/29 01:27:36;;;;;;;33.30;18.48;;;9.10;99.90;;;;;;5064505;28;20531;-72
2022/12/29 01:30:09;;;;;;;31.63;17.40;;;9.20;99.90;;;;;;5047450;28;20047;-69
2022/12/29 01:32:35;;;;;;;32.95;18.20;;;9.20;99.90;;;;;;5046209;28;20021;-68
2022/12/29 01:35:09;;;;;;;34.03;18.27;;;9.20;99.90;;;;;;5045841;28;20032;-71
2022/12/29 01:37:41;;;;;;;;;;;9.20;99.90;;;;;;5064403;28;20029;-68
2022/12/29 01:40:10;;;;;;;28.88;15.93;;;9.20;99.90;;;;;;5045628;28;19908;-71
2022/12/29 01:42:42;;;;;;;28.77;16.40;;;9.20;99.90;;;;;;5045867;28;20080;-72
2022/12/29 01:45:16;;;;;;;26.75;14.25;;;9.30;99.90;;;;;;5063512;28;20940;-70
2022/12/29 01:48:16;;;;;;;23.05;12.88;;;9.20;99.90;;;;;;5063223;28;20029;-69
2022/12/29 01:50:50;;;;;;;22.75;13.85;;;9.30;99.90;;;;;;5062675;28;20048;-71
2022/12/29 01:53:35;;;;;;;26.58;15.40;;;9.30;99.90;;;;;;5045478;28;20782;-69
2022/12/29 01:56:07;;;;;;;25.23;14.38;;;9.30;99.90;;;;;;5045551;28;20139;-71
2022/12/29 01:58:37;;;;;;;21.50;13.43;;;9.40;99.90;;;;;;5045132;28;20086;-69
2022/12/29 02:01:04;;;;;;;27.85;14.50;;;9.40;99.90;;;;;;5045290;28;20029;-72
2022/12/29 02:03:32;;;;;;;23.35;14.35;;;9.40;99.90;;;;;;5063039;28;20025;-69
2022/12/29 02:06:09;;;;;;;24.38;14.60;;;9.40;99.90;;;;;;5063188;28;20032;-68
2022/12/29 02:08:36;;;;;;;23.05;13.60;;;9.50;99.90;;;;;;5044882;28;20043;-69
2022/12/29 02:11:03;;;;;;;24.17;13.82;;;9.50;99.90;;;;;;5045328;28;20037;-70
2022/12/29 02:13:31;;;;;;;20.23;12.23;;;9.50;99.90;;;;;;5045130;28;20080;-69
2022/12/29 02:16:18;;;;;;;19.40;11.05;;;9.50;99.90;;;;;;5043577;28;20024;-67
2022/12/29 02:19:09;;;;;;;24.48;12.02;;;9.50;99.90;;;;;;5044946;28;20047;-71
2022/12/29 02:22:02;;;;;;;24.25;13.23;;;9.60;99.90;;;;;;5063028;28;20071;-69
2022/12/29 02:24:37;;;;;;;21.35;12.25;;;9.60;99.90;;;;;;5044665;28;20028;-71
2022/12/29 02:28:07;;;;;;;18.30;10.95;;;9.60;99.90;;;;;;5044878;28;20025;-72
2022/12/29 02:30:36;;;;;;;20.75;11.98;;;9.60;99.90;;;;;;4974026;28;20081;-71
2022/12/29 02:33:27;;;;;;;18.85;10.65;;;9.60;99.90;;;;;;5053616;28;20116;-73
2022/12/29 02:36:12;;;;;;;19.70;11.63;;;9.70;99.90;;;;;;5044565;28;20020;-73
2022/12/29 02:38:40;;;;;;;;;;;9.60;99.90;;;;;;5062470;28;20037;-70
2022/12/29 02:41:32;;;;;;;20.10;10.55;;;9.60;99.90;;;;;;5044748;28;19912;-71
2022/12/29 02:44:37;;;;;;;21.38;11.93;;;9.70;99.90;;;;;;5044856;28;20017;-69
2022/12/29 02:47:48;;;;;;;14.10;8.35;;;9.70;99.90;;;;;;5043807;28;20367;-71
2022/12/29 02:50:27;;;;;;;20.58;12.43;;;9.70;99.90;;;;;;5000005;28;20046;-70
2022/12/29 02:53:06;;;;;;;18.67;11.30;;;9.70;99.90;;;;;;5059768;28;20036;-73
2022/12/29 02:55:32;;;;;;;19.15;11.05;;;9.80;99.90;;;;;;5062124;28;20048;-71
2022/12/29 02:58:11;;;;;;;20.85;12.70;;;9.80;99.90;;;;;;5062348;28;20032;-71
2022/12/29 03:00:53;;;;;;;21.05;11.30;;;9.80;99.90;;;;;;5061010;28;20024;-70
2022/12/29 03:03:36;;;;;;;19.90;11.85;;;9.80;99.90;;;;;;5044353;28;20017;-70
2022/12/29 03:06:13;;;;;;;17.70;11.23;;;9.80;99.90;;;;;;5044305;28;20043;-70
2022/12/29 03:08:40;;;;;;;18.92;12.35;;;9.80;99.90;;;;;;5062064;28;20035;-72
2022/12/29 03:17:30;;;;;;;18.73;11.50;;;9.90;99.90;;;;;;5062253;28;20043;-71
2022/12/29 03:20:10;;;;;;;19.83;11.73;;;9.90;99.90;;;;;;5044229;28;20036;-72
2022/12/29 03:22:40;;;;;;;21.92;11.35;;;9.90;99.90;;;;;;5025878;28;20038;-71
2022/12/29 03:25:23;;;;;;;18.98;11.80;;;9.90;99.90;;;;;;5040109;28;20056;-71
2022/12/29 03:28:11;;;;;;;18.08;9.82;;;9.90;99.90;;;;;;5023311;28;20040;-70
2022/12/29 03:30:39;;;;;;;17.52;11.55;;;9.90;99.90;;;;;;5040746;28;20034;-70
2022/12/29 03:33:15;;;;;;;14.88;8.70;;;9.80;99.90;;;;;;5041458;28;20026;-68
2022/12/29 03:35:46;;;;;;;18.65;10.70;;;9.90;99.90;;;;;;5023739;28;20120;-68
2022/12/29 03:38:34;;;;;;;15.60;10.77;;;9.90;99.90;;;;;;5042324;28;20056;-70
2022/12/29 03:41:10;;;;;;;17.88;11.38;;;9.90;99.90;;;;;;5026756;28;20022;-66
2022/12/29 03:43:36;;;;;;;16.60;10.00;;;9.90;99.90;;;;;;5025125;28;20030;-68
2022/12/29 03:46:02;;;;;;;16.10;8.90;;;9.90;99.90;;;;;;5042150;28;20149;-71
2022/12/29 03:48:32;;;;;;;13.40;8.38;;;9.90;99.90;;;;;;5025872;28;20033;-72
2022/12/29 03:51:01;;;;;;;12.70;7.80;;;10.00;99.90;;;;;;5024803;28;20060;-69
2022/12/29 03:53:28;;;;;;;12.20;7.47;;;10.00;99.90;;;;;;5024835;28;20025;-70
2022/12/29 03:55:57;;;;;;;11.65;7.20;;;10.00;99.90;;;;;;5023923;28;20040;-69
2022/12/29 03:58:23;;;;;;;10.93;6.07;;;10.00;99.90;;;;;;5040482;28;20462;-70
2022/12/29 04:00:49;;;;;;;11.77;7.00;;;10.00;99.90;;;;;;5039919;28;20100;-70
2022/12/29 04:03:18;;;;;;;10.65;5.95;;;10.00;99.90;;;;;;5023783;28;20025;-70
2022/12/29 04:05:47;;;;;;;11.18;7.15;;;10.00;99.90;;;;;;5039470;28;20074;-73
2022/12/29 04:08:13;;;;;;;13.27;6.78;;;10.00;99.90;;;;;;5022273;28;20022;-71
2022/12/29 04:10:55;;;;;;;11.13;5.72;;;9.90;99.90;;;;;;5039151;28;20041;-69
2022/12/29 04:13:21;;;;;;;11.57;7.38;;;9.90;99.90;;;;;;5019859;28;20038;-71
2022/12/29 04:15:47;;;;;;;12.90;8.00;;;9.80;99.90;;;;;;5039043;28;20022;-71
2022/12/29 04:18:13;;;;;;;11.82;8.25;;;9.80;99.90;;;;;;5038934;28;20056;-73
2022/12/29 04:23:28;;;;;;;12.18;6.88;;;9.70;99.90;;;;;;5055455;28;20162;-70
2022/12/29 04:25:54;;;;;;;11.15;6.90;;;9.70;99.90;;;;;;5066108;28;20060;-71
2022/12/29 04:28:20;;;;;;;11.95;6.97;;;9.70;99.90;;;;;;5052444;28;20055;-71
2022/12/29 04:30:46;;;;;;;14.32;7.47;;;9.70;99.90;;;;;;5050526;28;20512;-71
2022/12/29 04:33:15;;;;;;;15.05;7.38;;;9.70;99.90;;;;;;5049834;28;20020;-71
2022/12/29 04:35:45;;;;;;;14.85;9.80;;;9.70;99.90;;;;;;5048725;28;20131;-70
2022/12/29 04:38:21;;;;;;;14.32;8.80;;;9.70;99.90;;;;;;5047269;28;20028;-72
2022/12/29 04:40:51;;;;;;;15.90;9.82;;;9.70;99.90;;;;;;5059737;28;20085;-71
2022/12/29 04:43:19;;;;;;;15.05;8.77;;;9.70;99.90;;;;;;5069833;28;20049;-72
2022/12/29 04:45:45;;;;;;;17.73;10.73;;;9.70;99.90;;;;;;5050786;28;20029;-73
2022/12/29 04:48:15;;;;;;;21.27;11.88;;;9.70;99.90;;;;;;5051010;28;20067;-72
2022/12/29 04:50:41;;;;;;;17.13;8.15;;;9.70;99.90;;;;;;5064341;28;20031;-68
2022/12/29 04:53:07;;;;;;;24.63;13.15;;;9.80;99.90;;;;;;5061307;28;20067;-73
2022/12/29 04:55:34;;;;;;;26.63;13.13;;;9.80;99.90;;;;;;5043696;28;20045;-71
2022/12/29 04:57:59;;;;;;;23.83;12.68;;;9.80;99.90;;;;;;5064828;28;20021;-70
2022/12/29 05:00:25;;;;;;;27.85;13.63;;;9.80;99.90;;;;;;5066211;28;20044;-72
2022/12/29 05:02:52;;;;;;;29.42;13.55;;;9.90;99.90;;;;;;5049990;28;20044;-73
2022/12/29 05:05:18;;;;;;;26.20;12.45;;;9.90;99.90;;;;;;5048876;28;20021;-70
2022/12/29 05:07:44;;;;;;;32.88;12.70;;;9.90;99.90;;;;;;5064233;28;20501;-69
2022/12/29 05:10:19;;;;;;;26.95;12.30;;;9.90;99.90;;;;;;5067526;28;20088;-72
2022/12/29 05:12:45;;;;;;;20.52;10.20;;;9.90;99.90;;;;;;5048599;28;20104;-72
2022/12/29 05:15:11;;;;;;;17.52;8.70;;;9.90;99.90;;;;;;5062619;28;20024;-69
2022/12/29 05:17:37;;;;;;;18.67;10.05;;;9.90;99.90;;;;;;5048732;28;20017;-71
2022/12/29 05:20:05;;;;;;;18.45;8.07;;;10.00;99.90;;;;;;5061144;28;20028;-67
2022/12/29 05:22:31;;;;;;;18.35;9.93;;;9.90;99.90;;;;;;5066230;28;20049;-74
2022/12/29 05:24:57;;;;;;;20.73;9.38;;;9.90;99.90;;;;;;5050928;28;20021;-70
2022/12/29 05:27:22;;;;;;;17.25;8.70;;;10.00;99.90;;;;;;5062679;28;20028;-72
2022/12/29 05:29:48;;;;;;;12.25;6.93;;;10.00;99.90;;;;;;5048611;28;20063;-74
2022/12/29 05:32:13;;;;;;;15.40;7.43;;;10.00;99.90;;;;;;5061377;28;20128;-71
2022/12/29 05:34:40;;;;;;;19.73;9.13;;;10.00;99.90;;;;;;5066682;28;20032;-69
2022/12/29 05:37:06;;;;;;;15.68;8.15;;;10.00;99.90;;;;;;5066301;28;20020;-67
2022/12/29 05:39:32;;;;;;;14.45;7.30;;;10.00;99.90;;;;;;5062890;28;20059;-75
2022/12/29 05:41:57;;;;;;;14.35;8.20;;;10.00;99.90;;;;;;5049147;28;20048;-72
2022/12/29 05:44:24;;;;;;;11.57;6.10;;;10.00;99.90;;;;;;5051766;28;20029;-73
2022/12/29 05:46:50;;;;;;;16.67;6.50;;;10.00;99.90;;;;;;5069506;28;20492;-71
2022/12/29 05:49:16;;;;;;;12.88;5.35;;;10.00;99.90;;;;;;5050718;28;20025;-70
2022/12/29 05:51:42;;;;;;;10.20;4.60;;;10.00;99.90;;;;;;5051304;28;20051;-67
2022/12/29 05:54:08;;;;;;;10.00;4.25;;;9.90;99.90;;;;;;5065220;28;20017;-70
2022/12/29 05:56:36;;;;;;;5.57;3.35;;;10.00;99.90;;;;;;5048312;28;20021;-73
2022/12/29 05:59:02;;;;;;;6.00;3.10;;;10.00;99.90;;;;;;5049948;28;20102;-72
2022/12/29 06:01:28;;;;;;;6.72;2.70;;;9.90;99.90;;;;;;5051520;28;20478;-70
2022/12/29 06:03:54;;;;;;;5.57;2.40;;;9.90;99.90;;;;;;5070509;28;20039;-69
2022/12/29 06:06:20;;;;;;;4.25;2.55;;;9.90;99.90;;;;;;5053141;28;20055;-71
2022/12/29 06:08:45;;;;;;;2.60;1.88;;;10.00;99.90;;;;;;5053191;28;20032;-70
2022/12/29 06:11:11;;;;;;;4.32;2.05;;;9.90;99.90;;;;;;5071241;28;20036;-69
2022/12/29 06:13:37;;;;;;;3.22;2.22;;;9.90;99.90;;;;;;5053214;28;20029;-69
2022/12/29 06:16:03;;;;;;;5.53;3.17;;;9.90;99.90;;;;;;5053766;28;20029;-70
2022/12/29 06:18:29;;;;;;;7.20;4.40;;;9.90;99.90;;;;;;5068172;28;20035;-69
2022/12/29 06:21:00;;;;;;;8.32;4.40;;;9.90;99.90;;;;;;5062882;28;20139;-72
2022/12/29 06:23:26;;;;;;;7.32;4.32;;;10.00;99.90;;;;;;5057637;28;20055;-68
2022/12/29 06:25:52;;;;;;;12.23;5.22;;;9.90;99.90;;;;;;5043071;28;20021;-70
2022/12/29 06:28:17;;;;;;;13.50;6.05;;;9.90;99.90;;;;;;5060923;28;20079;-70
2022/12/29 06:30:45;;;;;;;13.38;6.80;;;9.90;99.90;;;;;;5061582;28;20029;-68
2022/12/29 06:33:11;;;;;;;13.77;5.22;;;9.80;99.90;;;;;;5044765;28;20032;-68
2022/12/29 06:35:41;;;;;;;10.55;5.55;;;9.90;99.90;;;;;;5057213;28;20087;-71
2022/12/29 06:38:10;;;;;;;12.38;5.40;;;9.80;99.90;;;;;;5038380;28;20049;-71
2022/12/29 06:40:36;;;;;;;5.15;2.88;;;9.80;99.90;;;;;;5054236;28;20041;-68
2022/12/29 06:43:01;;;;;;;11.45;3.15;;;9.80;99.90;;;;;;5060164;28;20021;-68
2022/12/29 06:45:27;;;;;;;5.72;2.42;;;9.80;99.90;;;;;;5042071;28;20025;-69
2022/12/29 06:47:52;;;;;;;8.25;2.08;;;9.80;99.90;;;;;;5061914;28;20157;-70
2022/12/29 06:50:18;;;;;;;6.07;1.85;;;9.80;99.90;;;;;;5043521;28;20048;-73
2022/12/29 06:52:43;;;;;;;3.33;1.70;;;9.80;99.90;;;;;;5044122;28;20025;-70
2022/12/29 06:55:09;;;;;;;5.28;1.65;;;9.80;99.90;;;;;;5059527;28;20103;-71
2022/12/29 06:57:34;;;;;;;7.35;1.80;;;9.90;99.90;;;;;;5042165;28;20021;-71
2022/12/29 07:00:00;;;;;;;3.58;1.40;;;9.90;99.90;;;;;;5061304;28;20029;-72
2022/12/29 07:02:25;;;;;;;4.97;2.33;;;9.90;99.90;;;;;;5060964;28;20040;-74
2022/12/29 07:04:52;;;;;;;8.32;2.78;;;9.90;99.90;;;;;;5052780;28;20107;-71
2022/12/29 07:07:19;;;;;;;5.30;3.08;;;9.90;99.90;;;;;;5059268;28;20021;-70
2022/12/29 07:09:45;;;;;;;11.48;4.68;;;9.90;99.90;;;;;;5059001;28;20115;-71
2022/12/29 07:12:10;;;;;;;10.10;4.50;;;9.90;99.90;;;;;;5042629;28;20049;-71
2022/12/29 07:14:36;;;;;;;10.68;5.10;;;9.90;99.90;;;;;;5059352;28;20051;-71
2022/12/29 07:17:05;;;;;;;12.98;4.60;;;9.80;99.90;;;;;;5060204;28;20070;-71
2022/12/29 07:19:31;;;;;;;5.97;3.33;;;9.80;99.90;;;;;;5060025;28;20034;-69
2022/12/29 07:21:56;;;;;;;12.48;3.15;;;9.80;99.90;;;;;;5046584;28;20129;-69
2022/12/29 07:24:22;;;;;;;7.47;3.75;;;9.80;99.90;;;;;;5042451;28;20030;-67
2022/12/29 07:26:48;;;;;;;6.38;3.10;;;9.80;99.90;;;;;;5042136;28;20033;-70
2022/12/29 07:29:13;;;;;;;10.07;4.22;;;9.80;99.90;;;;;;5042023;28;20033;-70
2022/12/29 07:31:39;;;;;;;10.05;4.70;;;9.80;99.90;;;;;;5042045;28;20077;-71
2022/12/29 07:34:04;;;;;;;10.70;4.70;;;9.80;99.90;;;;;;5040984;28;20021;-70
2022/12/29 07:36:30;;;;;;;14.77;4.18;;;9.80;99.90;;;;;;5041973;28;20018;-72
2022/12/29 07:38:59;;;;;;;14.50;3.40;;;9.70;99.90;;;;;;5042338;28;20021;-72
2022/12/29 07:41:24;;;;;;;6.68;3.72;;;9.70;99.90;;;;;;5023878;28;20107;-69
2022/12/29 07:43:50;;;;;;;7.78;3.20;;;9.70;99.90;;;;;;5041790;28;20033;-70
2022/12/29 07:46:16;;;;;;;8.43;3.90;;;9.60;99.90;;;;;;5041759;28;20053;-70
2022/12/29 07:48:41;;;;;;;8.52;4.03;;;9.70;99.90;;;;;;5039564;28;20021;-69
2022/12/29 07:51:07;;;;;;;12.10;4.70;;;9.70;99.90;;;;;;5041007;28;20034;-71
2022/12/29 07:53:32;;;;;;;17.27;4.28;;;9.70;99.90;;;;;;5041216;28;20030;-70
2022/12/29 07:55:58;;;;;;;13.85;3.20;;;9.70;99.90;;;;;;5041798;28;20114;-69
2022/12/29 07:58:23;;;;;;;9.00;3.10;;;9.70;99.90;;;;;;5041586;28;20044;-69
2022/12/29 08:00:56;;;;;;;6.18;3.50;;;9.70;99.90;;;;;;5039674;28;20014;-68
2022/12/29 08:03:22;;;;;;;7.78;3.80;;;9.80;99.90;;;;;;5041270;28;20036;-72
2022/12/29 08:05:48;;;;;;;12.80;3.28;;;9.80;99.90;;;;;;5041505;28;20022;-72
2022/12/29 08:08:23;;;;;;;5.70;3.05;;;9.80;99.90;;;;;;5041347;28;20171;-72
2022/12/29 08:10:48;;;;;;;9.07;3.42;;;9.80;99.90;;;;;;5040967;28;20109;-72
2022/12/29 08:13:14;;;;;;;9.80;2.83;;;9.80;99.90;;;;;;5041285;28;20021;-69
2022/12/29 08:15:40;;;;;;;6.72;2.10;;;9.80;99.90;;;;;;5040278;28;20044;-72
2022/12/29 08:18:05;;;;;;;4.43;2.28;;;9.80;99.90;;;;;;5039025;28;20067;-74
2022/12/29 08:20:31;;;;;;;7.35;2.03;;;9.80;99.90;;;;;;5039014;28;20030;-70
2022/12/29 08:22:57;;;;;;;9.98;2.22;;;9.80;99.90;;;;;;5060179;28;20024;-70
2022/12/29 08:25:23;;;;;;;7.50;2.22;;;9.80;99.90;;;;;;5059120;28;20029;-67
2022/12/29 08:27:48;;;;;;;9.63;1.70;;;9.80;99.90;;;;;;5052297;28;20105;-70
2022/12/29 08:30:14;;;;;;;6.47;1.80;;;9.90;99.90;;;;;;5054439;28;20040;-68
2022/12/29 08:32:40;;;;;;;9.25;2.03;;;10.00;99.90;;;;;;5059663;28;20021;-70
2022/12/29 08:35:06;;;;;;;9.02;1.70;;;10.10;99.90;;;;;;5042043;28;20013;-71
2022/12/29 08:37:33;;;;;;;8.70;1.90;;;10.10;99.90;;;;;;5041312;28;20059;-69
2022/12/29 08:40:03;;;;;;;6.40;2.03;;;10.10;99.90;;;;;;5059960;28;20024;-71
2022/12/29 08:42:30;;;;;;;8.82;2.35;;;10.20;99.90;;;;;;5042216;28;20021;-71
2022/12/29 08:44:57;;;;;;;7.18;1.90;;;10.40;99.90;;;;;;5059434;28;20056;-70
2022/12/29 08:47:22;;;;;;;5.05;1.50;;;10.70;99.90;;;;;;5042830;28;20116;-70
2022/12/29 08:49:48;;;;;;;8.20;2.13;;;10.90;99.90;;;;;;5060872;28;20024;-68
2022/12/29 08:52:13;;;;;;;7.45;1.63;;;11.00;99.90;;;;;;5043177;28;20017;-66
2022/12/29 08:54:39;;;;;;;10.07;2.00;;;10.90;99.90;;;;;;5058150;28;20090;-68
2022/12/29 08:57:04;;;;;;;10.02;2.95;;;10.80;99.90;;;;;;5041752;28;20025;-67
2022/12/29 08:59:30;;;;;;;18.65;5.65;;;10.60;99.90;;;;;;5043517;28;20493;-68
2022/12/29 09:01:55;;;;;;;13.05;2.42;;;10.50;99.90;;;;;;5060898;28;20031;-72
2022/12/29 09:04:23;;;;;;;11.93;2.38;;;10.40;99.90;;;;;;5058723;28;20056;-69
2022/12/29 09:06:49;;;;;;;13.38;2.70;;;10.30;99.90;;;;;;5058106;28;20573;-69
2022/12/29 09:09:14;;;;;;;8.50;2.13;;;10.20;99.90;;;;;;5056822;28;20060;-68
2022/12/29 09:11:41;;;;;;;10.05;2.15;;;10.20;99.90;;;;;;5059058;28;20041;-67
2022/12/29 09:14:07;;;;;;;8.02;1.75;;;10.20;99.90;;;;;;5059330;28;20033;-69
2022/12/29 09:16:33;;;;;;;9.27;2.22;;;10.20;99.90;;;;;;5060006;28;20092;-69
2022/12/29 09:18:59;;;;;;;6.72;2.13;;;10.20;99.90;;;;;;5058572;28;20036;-68
2022/12/29 09:21:25;;;;;;;7.60;1.38;;;10.20;99.90;;;;;;5040035;28;20132;-69
2022/12/29 09:23:50;;;;;;;12.30;2.25;;;10.10;99.90;;;;;;5059877;28;20819;-70
2022/12/29 09:26:16;;;;;;;11.13;1.85;;;10.10;99.90;;;;;;5061118;28;20034;-69
2022/12/29 09:28:44;;;;;;;7.28;2.00;;;10.10;99.90;;;;;;5063983;28;20052;-69
2022/12/29 09:31:09;;;;;;;4.68;1.20;;;10.40;99.90;;;;;;5062810;28;20062;-68
2022/12/29 09:33:35;;;;;;;8.20;1.63;;;10.50;99.90;;;;;;5063551;28;20108;-69
2022/12/29 09:36:01;;;;;;;6.95;1.52;;;10.50;99.90;;;;;;5064161;28;20501;-68
2022/12/29 09:38:27;;;;;;;13.98;1.92;;;10.60;99.90;;;;;;5062973;28;20170;-72
2022/12/29 09:41:04;;;;;;;8.27;1.70;;;10.50;99.90;;;;;;5055075;28;20033;-70
2022/12/29 09:43:50;;;;;;;5.93;1.60;;;10.40;99.90;;;;;;5042569;28;20025;-72
2022/12/29 09:46:26;;;;;;;9.52;2.10;;;10.40;99.90;;;;;;5021684;28;20513;-69
2022/12/29 09:49:14;;;;;;;5.30;1.52;;;10.30;99.90;;;;;;5045598;28;20020;-68
2022/12/29 09:51:43;;;;;;;10.00;1.83;;;10.30;99.90;;;;;;5062621;28;20033;-69
2022/12/29 09:54:27;;;;;;;13.77;2.00;;;10.30;99.90;;;;;;5063594;28;20082;-68
2022/12/29 09:56:53;;;;;;;6.32;1.38;;;10.30;99.90;;;;;;5059435;28;20044;-69
2022/12/29 09:59:26;;;;;;;5.40;1.50;;;10.20;99.90;;;;;;5063955;28;20024;-69
2022/12/29 10:02:04;;;;;;;7.10;1.58;;;10.20;99.90;;;;;;5063943;28;20151;-69
2022/12/29 10:04:30;;;;;;;6.53;1.77;;;10.20;99.90;;;;;;5063760;28;20028;-68
2022/12/29 10:07:26;;;;;;;8.75;1.30;;;10.20;99.90;;;;;;5044732;28;20033;-69
2022/12/29 10:09:51;;;;;;;8.10;1.80;;;10.20;99.90;;;;;;5063507;28;20408;-69
2022/12/29 10:12:59;;;;;;;9.13;1.70;;;10.20;99.90;;;;;;5063516;28;20025;-69
2022/12/29 10:15:39;;;;;;;9.02;1.88;;;10.20;99.90;;;;;;5063184;28;20025;-70
2022/12/29 10:18:35;;;;;;;7.70;1.70;;;10.20;99.90;;;;;;5063479;28;20465;-69
2022/12/29 10:21:06;;;;;;;11.40;1.77;;;10.20;99.90;;;;;;5063409;28;20057;-68
2022/12/29 10:23:52;;;;;;;6.40;1.60;;;10.20;99.90;;;;;;5061383;28;20035;-69
2022/12/29 10:26:22;;;;;;;6.18;1.80;;;10.30;99.90;;;;;;5063176;28;20028;-68
2022/12/29 10:29:17;;;;;;;7.40;1.50;;;10.20;99.90;;;;;;5061128;28;20087;-68
2022/12/29 10:31:57;;;;;;;12.63;2.03;;;10.20;99.90;;;;;;5062501;28;20037;-68
2022/12/29 10:34:45;;;;;;;5.82;1.83;;;10.30;99.90;;;;;;5062246;28;20625;-68
2022/12/29 10:37:17;;;;;;;9.07;1.55;;;10.20;99.90;;;;;;5043229;28;20029;-69
2022/12/29 10:39:54;;;;;;;9.40;1.25;;;10.20;99.90;;;;;;5062730;28;20028;-67
2022/12/29 10:42:43;;;;;;;5.63;1.48;;;10.20;99.90;;;;;;5062035;28;20066;-68
2022/12/29 10:45:14;;;;;;;5.28;1.42;;;10.20;99.90;;;;;;5053664;28;20028;-69
2022/12/29 10:48:06;;;;;;;9.32;1.48;;;10.20;99.90;;;;;;5062050;28;20052;-70
2022/12/29 10:50:33;;;;;;;3.80;1.13;;;10.20;99.90;;;;;;5062201;28;20037;-71
2022/12/29 10:53:04;;;;;;;7.55;1.88;;;10.20;99.90;;;;;;5063036;28;20024;-72
2022/12/29 10:55:35;;;;;;;6.47;2.17;;;10.20;99.90;;;;;;5062988;28;20052;-70
2022/12/29 10:58:04;;;;;;;9.60;3.40;;;10.10;99.90;;;;;;5062601;28;20032;-69
2022/12/29 11:00:31;;;;;;;7.28;2.10;;;10.10;99.90;;;;;;5060707;28;20017;-73
2022/12/29 11:03:27;;;;;;;7.22;1.40;;;10.10;99.90;;;;;;5062573;28;20059;-70
2022/12/29 11:06:00;;;;;;;6.00;1.63;;;10.10;99.90;;;;;;5062698;28;20074;-71
2022/12/29 11:08:31;;;;;;;7.15;2.00;;;10.10;99.90;;;;;;5062529;28;20029;-71
2022/12/29 11:11:09;;;;;;;4.85;1.60;;;10.10;99.90;;;;;;5061297;28;20133;-69
2022/12/29 11:14:15;;;;;;;4.13;1.55;;;10.00;99.90;;;;;;5062243;28;20021;-69
2022/12/29 11:16:43;;;;;;;12.23;1.80;;;9.90;99.90;;;;;;5043127;28;20039;-69
2022/12/29 11:19:23;;;;;;;16.02;1.80;;;9.80;99.90;;;;;;5060371;28;20021;-70
2022/12/29 11:21:49;;;;;;;9.70;1.98;;;9.80;99.90;;;;;;5039481;28;21301;-70
2022/12/29 11:24:23;;;;;;;8.15;2.22;;;9.70;99.90;;;;;;5043235;28;20048;-69
2022/12/29 11:26:52;;;;;;;5.07;2.10;;;9.70;99.90;;;;;;5060275;28;20433;-68
2022/12/29 11:29:36;;;;;;;6.25;1.70;;;9.60;99.90;;;;;;5060700;28;20025;-68
2022/12/29 11:32:11;;;;;;;7.63;2.33;;;9.60;99.90;;;;;;5057899;28;20045;-70
2022/12/29 11:34:37;;;;;;;8.05;2.22;;;9.60;99.90;;;;;;5051612;28;20378;-69
2022/12/29 11:37:17;;;;;;;16.75;3.08;;;9.60;99.90;;;;;;5058322;28;20071;-70
2022/12/29 11:39:59;;;;;;;9.77;2.65;;;9.60;99.90;;;;;;5055566;28;20037;-68
2022/12/29 11:42:47;;;;;;;8.40;2.00;;;9.60;99.90;;;;;;5055876;28;20025;-69
2022/12/29 11:45:13;;;;;;;13.70;2.42;;;9.60;99.90;;;;;;5058785;28;20032;-69
2022/12/29 11:47:38;;;;;;;13.05;2.28;;;9.70;99.90;;;;;;5040772;28;20025;-72
2022/12/29 11:50:06;;;;;;;17.98;3.10;;;9.70;99.90;;;;;;5058963;28;20033;-72
2022/12/29 11:52:36;;;;;;;14.32;2.53;;;9.70;99.90;;;;;;5057197;28;20025;-70
2022/12/29 11:55:05;;;;;;;7.45;1.55;;;9.80;99.90;;;;;;5057950;28;20113;-69
2022/12/29 11:57:33;;;;;;;7.07;1.63;;;9.80;99.90;;;;;;5056479;28;20066;-68
2022/12/29 12:00:03;;;;;;;11.20;2.03;;;9.90;99.90;;;;;;5052495;28;20021;-69
2022/12/29 12:02:47;;;;;;;7.30;1.20;;;9.90;99.90;;;;;;5039011;28;20041;-70
2022/12/29 12:05:23;;;;;;;12.43;2.70;;;10.00;99.90;;;;;;5054170;28;20093;-70
2022/12/29 12:08:13;;;;;;;11.60;1.77;;;10.00;99.90;;;;;;5054977;28;20037;-70
2022/12/29 12:10:51;;;;;;;4.13;1.38;;;10.10;99.90;;;;;;5059664;28;20033;-69
2022/12/29 12:13:24;;;;;;;6.05;1.40;;;10.10;99.90;;;;;;5059890;28;20029;-71
2022/12/29 12:15:57;;;;;;;6.82;1.63;;;10.10;99.90;;;;;;5059218;28;20100;-69
2022/12/29 12:18:49;;;;;;;6.45;1.75;;;10.10;99.90;;;;;;5059681;28;20056;-72
2022/12/29 12:21:37;;;;;;;13.18;1.92;;;10.20;99.90;;;;;;5055190;28;20041;-69
2022/12/29 12:24:13;;;;;;;6.63;1.50;;;10.10;99.90;;;;;;5052395;28;20030;-72
2022/12/29 12:27:01;;;;;;;11.82;2.58;;;10.10;99.90;;;;;;5051714;28;20025;-71
2022/12/29 12:29:52;;;;;;;6.40;2.88;;;10.10;99.90;;;;;;5051391;28;20392;-71
2022/12/29 12:32:27;;;;;;;10.32;2.83;;;10.00;99.90;;;;;;5051102;28;20085;-71
2022/12/29 12:34:52;;;;;;;10.55;1.65;;;10.00;99.90;;;;;;5049427;28;20029;-67
2022/12/29 12:37:52;;;;;;;7.38;2.10;;;10.00;99.90;;;;;;5052455;28;20523;-72
2022/12/29 12:40:20;;;;;;;7.13;1.63;;;9.90;99.90;;;;;;5049520;28;20021;-71
2022/12/29 12:42:55;;;;;;;10.52;1.60;;;9.90;99.90;;;;;;5039710;28;20124;-70
2022/12/29 12:45:32;;;;;;;18.02;1.58;;;9.90;99.90;;;;;;5051864;28;20055;-72
2022/12/29 12:48:23;;;;;;;6.82;1.50;;;9.90;99.90;;;;;;5054198;28;20029;-71
2022/12/29 12:51:09;;;;;;;6.15;1.65;;;10.00;99.90;;;;;;5050650;28;20043;-70
2022/12/29 12:53:49;;;;;;;11.07;1.30;;;9.90;99.90;;;;;;5050637;28;20131;-71
2022/12/29 12:56:32;;;;;;;10.27;1.90;;;9.80;99.90;;;;;;5048221;28;20029;-70
2022/12/29 12:59:07;;;;;;;7.13;1.65;;;9.80;99.90;;;;;;5051878;28;20124;-68
2022/12/29 13:01:35;;;;;;;9.85;1.52;;;9.80;99.90;;;;;;5038248;28;20155;-69
2022/12/29 13:04:48;;;;;;;7.53;1.67;;;9.80;99.90;;;;;;5050026;28;20029;-69
2022/12/29 13:07:40;;;;;;;8.60;1.73;;;9.80;99.90;;;;;;4986671;28;20039;-68
2022/12/29 13:10:34;;;;;;;7.30;2.20;;;9.70;99.90;;;;;;5052457;28;20022;-70
2022/12/29 13:13:34;;;;;;;7.43;1.45;;;9.70;99.90;;;;;;5049290;28;20025;-70
2022/12/29 13:16:12;;;;;;;8.68;1.67;;;9.70;99.90;;;;;;5050313;28;20139;-68
2022/12/29 13:18:45;;;;;;;10.05;1.73;;;9.70;99.90;;;;;;5050163;28;20052;-69
2022/12/29 13:21:25;;;;;;;7.65;2.00;;;9.70;99.90;;;;;;5048488;28;20504;-72
2022/12/29 13:24:17;;;;;;;5.70;1.60;;;9.80;99.90;;;;;;5049323;28;20041;-71
2022/12/29 13:26:52;;;;;;;8.32;2.15;;;9.70;99.90;;;;;;5050855;28;20060;-71
2022/12/29 13:29:29;;;;;;;5.72;1.50;;;9.70;99.90;;;;;;5054932;28;20112;-72
2022/12/29 13:32:22;;;;;;;8.15;1.70;;;9.70;99.90;;;;;;5039627;28;20029;-73
2022/12/29 13:35:12;;;;;;;6.43;1.48;;;9.70;99.90;;;;;;5048899;28;20033;-73
2022/12/29 13:37:52;;;;;;;5.70;1.58;;;9.70;99.90;;;;;;5048867;28;20032;-70
2022/12/29 13:40:24;;;;;;;5.18;1.60;;;9.70;99.90;;;;;;5050632;28;20037;-71
2022/12/29 13:42:51;;;;;;;6.22;1.38;;;9.70;99.90;;;;;;5050701;28;20557;-69
2022/12/29 13:45:23;;;;;;;6.65;1.25;;;9.70;99.90;;;;;;5048806;28;20025;-72
2022/12/29 13:47:55;;;;;;;8.82;1.70;;;9.80;99.90;;;;;;5053764;28;20037;-70
2022/12/29 13:50:26;;;;;;;9.30;1.45;;;9.80;99.90;;;;;;5040013;28;20110;-69